sensor_id;sensor_type;location;lat;lon;timestamp;temperature;humidity
14057;DHT22;7103;54.300;10.180;2024-03-06T00:00:14;4.40;96.40
14057;DHT22;7103;54.300;10.180;2024-03-06T00:02:41;4.50;98.60
14057;DHT22;7103;54.300;10.180;2024-03-06T00:05:08;4.50;99.50
14057;DHT22;7103;54.300;10.180;2024-03-06T00:07:35;4.50;94.90
14057;DHT22;7103;54.300;10.180;2024-03-06T00:10:03;4.50;93.40
14057;DHT22;7103;54.300;10.180;2024-03-06T00:12:32;4.40;95.20
14057;DHT22;7103;54.300;10.180;2024-03-06T00:14:59;4.50;99.90
14057;DHT22;7103;54.300;10.180;2024-03-06T00:17:26;4.50;99.90
14057;DHT22;7103;54.300;10.180;2024-03-06T00:19:53;4.40;99.90
14057;DHT22;7103;54.300;10.180;2024-03-06T00:22:20;4.40;99.90
14057;DHT22;7103;54.300;10.180;2024-03-06T00:24:50;4.40;99.90
14057;DHT22;7103;54.300;10.180;2024-03-06T00:27:18;4.40;99.90
14057;DHT22;7103;54.300;10.180;2024-03-06T00:29:45;4.40;99.90
14057;DHT22;7103;54.300;10.180;2024-03-06T00:32:12;4.30;99.90
14057;DHT22;7103;54.300;10.180;2024-03-06T00:34:39;4.20;99.90
14057;DHT22;7103;54.300;10.180;2024-03-06T00:37:06;4.30;99.90
14057;DHT22;7103;54.300;10.180;2024-03-06T00:39:33;4.30;99.90
14057;DHT22;7103;54.300;10.180;2024-03-06T00:42:00;4.40;99.90
14057;DHT22;7103;54.300;10.180;2024-03-06T00:44:27;4.30;99.90
14057;DHT22;7103;54.300;10.180;2024-03-06T00:46:54;4.20;99.90
14057;DHT22;7103;54.300;10.180;2024-03-06T00:49:21;4.30;99.90
14057;DHT22;7103;54.300;10.180;2024-03-06T00:51:48;4.30;99.90
14057;DHT22;7103;54.300;10.180;2024-03-06T00:54:16;4.30;99.90
14057;DHT22;7103;54.300;10.180;2024-03-06T00:56:44;4.30;99.90
14057;DHT22;7103;54.300;10.180;2024-03-06T00:59:11;4.20;99.90
14057;DHT22;7103;54.300;10.180;2024-03-06T01:01:38;4.20;99.90
14057;DHT22;7103;54.300;10.180;2024-03-06T01:04:06;4.10;99.90
14057;DHT22;7103;54.300;10.180;2024-03-06T01:06:33;4.10;99.90
14057;DHT22;7103;54.300;10.180;2024-03-06T01:09:00;4.20;99.90
14057;DHT22;7103;54.300;10.180;2024-03-06T01:11:26;4.20;99.90
14057;DHT22;7103;54.300;10.180;2024-03-06T01:13:54;4.30;99.90
14057;DHT22;7103;54.300;10.180;2024-03-06T01:16:21;4.40;99.90
14057;DHT22;7103;54.300;10.180;2024-03-06T01:18:48;4.20;99.90
14057;DHT22;7103;54.300;10.180;2024-03-06T01:21:15;4.20;99.90
14057;DHT22;7103;54.300;10.180;2024-03-06T01:23:42;4.10;99.90
14057;DHT22;7103;54.300;10.180;2024-03-06T01:26:10;4.20;99.90
14057;DHT22;7103;54.300;10.180;2024-03-06T01:28:38;4.00;99.90
14057;DHT22;7103;54.300;10.180;2024-03-06T01:31:05;4.10;99.90
14057;DHT22;7103;54.300;10.180;2024-03-06T01:33:33;4.10;99.90
14057;DHT22;7103;54.300;10.180;2024-03-06T01:36:00;4.00;99.90
14057;DHT22;7103;54.300;10.180;2024-03-06T01:38:28;4.00;99.90
14057;DHT22;7103;54.300;10.180;2024-03-06T01:40:55;4.20;99.90
14057;DHT22;7103;54.300;10.180;2024-03-06T01:43:23;4.10;99.90
14057;DHT22;7103;54.300;10.180;2024-03-06T01:45:52;4.00;99.90
14057;DHT22;7103;54.300;10.180;2024-03-06T01:48:25;4.00;99.90
14057;DHT22;7103;54.300;10.180;2024-03-06T01:50:55;3.90;99.90
14057;DHT22;7103;54.300;10.180;2024-03-06T01:53:23;3.90;99.90
14057;DHT22;7103;54.300;10.180;2024-03-06T01:55:51;3.90;99.90
14057;DHT22;7103;54.300;10.180;2024-03-06T01:58:19;3.80;99.90
14057;DHT22;7103;54.300;10.180;2024-03-06T02:00:50;3.80;99.90
14057;DHT22;7103;54.300;10.180;2024-03-06T02:03:18;3.90;99.90
14057;DHT22;7103;54.300;10.180;2024-03-06T02:05:50;4.20;99.90
14057;DHT22;7103;54.300;10.180;2024-03-06T02:08:17;4.00;99.90
14057;DHT22;7103;54.300;10.180;2024-03-06T02:10:45;4.00;99.90
14057;DHT22;7103;54.300;10.180;2024-03-06T02:13:13;4.10;99.90
14057;DHT22;7103;54.300;10.180;2024-03-06T02:15:41;4.00;99.90
14057;DHT22;7103;54.300;10.180;2024-03-06T02:18:09;3.90;99.90
14057;DHT22;7103;54.300;10.180;2024-03-06T02:20:40;4.00;99.90
14057;DHT22;7103;54.300;10.180;2024-03-06T02:23:07;4.10;99.90
14057;DHT22;7103;54.300;10.180;2024-03-06T02:25:35;4.10;99.90
14057;DHT22;7103;54.300;10.180;2024-03-06T02:28:02;4.00;99.90
14057;DHT22;7103;54.300;10.180;2024-03-06T02:30:29;4.00;99.90
14057;DHT22;7103;54.300;10.180;2024-03-06T02:33:03;4.00;99.90
14057;DHT22;7103;54.300;10.180;2024-03-06T02:35:31;3.90;99.90
14057;DHT22;7103;54.300;10.180;2024-03-06T02:38:01;4.10;99.90
14057;DHT22;7103;54.300;10.180;2024-03-06T02:40:30;4.10;99.90
14057;DHT22;7103;54.300;10.180;2024-03-06T02:42:57;4.10;99.90
14057;DHT22;7103;54.300;10.180;2024-03-06T02:45:23;4.10;99.90
14057;DHT22;7103;54.300;10.180;2024-03-06T02:47:50;4.10;99.90
14057;DHT22;7103;54.300;10.180;2024-03-06T02:50:17;4.10;99.90
14057;DHT22;7103;54.300;10.180;2024-03-06T02:52:45;4.00;99.90
14057;DHT22;7103;54.300;10.180;2024-03-06T02:55:11;4.00;99.90
14057;DHT22;7103;54.300;10.180;2024-03-06T02:57:38;4.00;99.90
14057;DHT22;7103;54.300;10.180;2024-03-06T03:00:06;4.10;99.90
14057;DHT22;7103;54.300;10.180;2024-03-06T03:02:35;4.00;99.90
14057;DHT22;7103;54.300;10.180;2024-03-06T03:05:02;4.10;99.90
14057;DHT22;7103;54.300;10.180;2024-03-06T03:07:29;4.00;99.90
14057;DHT22;7103;54.300;10.180;2024-03-06T03:09:56;4.00;99.90
14057;DHT22;7103;54.300;10.180;2024-03-06T03:12:23;4.00;99.90
14057;DHT22;7103;54.300;10.180;2024-03-06T03:14:50;4.00;99.90
14057;DHT22;7103;54.300;10.180;2024-03-06T03:17:18;4.20;99.90
14057;DHT22;7103;54.300;10.180;2024-03-06T03:19:46;4.00;99.90
14057;DHT22;7103;54.300;10.180;2024-03-06T03:22:13;4.20;99.90
14057;DHT22;7103;54.300;10.180;2024-03-06T03:24:42;4.20;99.90
14057;DHT22;7103;54.300;10.180;2024-03-06T03:27:09;4.00;99.90
14057;DHT22;7103;54.300;10.180;2024-03-06T03:29:36;4.00;99.90
14057;DHT22;7103;54.300;10.180;2024-03-06T03:32:03;3.90;99.90
14057;DHT22;7103;54.300;10.180;2024-03-06T03:34:31;4.10;99.90
14057;DHT22;7103;54.300;10.180;2024-03-06T03:36:59;4.20;99.90
14057;DHT22;7103;54.300;10.180;2024-03-06T03:39:26;4.10;99.90
14057;DHT22;7103;54.300;10.180;2024-03-06T03:41:54;4.10;99.90
14057;DHT22;7103;54.300;10.180;2024-03-06T03:44:20;4.10;99.90
14057;DHT22;7103;54.300;10.180;2024-03-06T03:46:48;4.00;99.90
14057;DHT22;7103;54.300;10.180;2024-03-06T03:49:15;3.90;99.90
14057;DHT22;7103;54.300;10.180;2024-03-06T03:51:42;4.00;99.90
14057;DHT22;7103;54.300;10.180;2024-03-06T03:54:09;3.90;99.90
14057;DHT22;7103;54.300;10.180;2024-03-06T03:56:35;3.90;99.90
14057;DHT22;7103;54.300;10.180;2024-03-06T03:59:02;4.00;99.90
14057;DHT22;7103;54.300;10.180;2024-03-06T04:01:29;4.00;99.90
14057;DHT22;7103;54.300;10.180;2024-03-06T04:03:57;4.10;99.90
14057;DHT22;7103;54.300;10.180;2024-03-06T04:06:24;4.00;99.90
14057;DHT22;7103;54.300;10.180;2024-03-06T04:08:51;3.90;99.90
14057;DHT22;7103;54.300;10.180;2024-03-06T04:11:18;3.90;99.90
14057;DHT22;7103;54.300;10.180;2024-03-06T04:13:45;4.00;1.00
14057;DHT22;7103;54.300;10.180;2024-03-06T04:16:17;4.00;1.00
14057;DHT22;7103;54.300;10.180;2024-03-06T04:18:46;4.00;1.00
14057;DHT22;7103;54.300;10.180;2024-03-06T04:21:13;3.90;1.00
14057;DHT22;7103;54.300;10.180;2024-03-06T04:23:43;3.80;1.00
14057;DHT22;7103;54.300;10.180;2024-03-06T04:26:11;3.80;1.00
14057;DHT22;7103;54.300;10.180;2024-03-06T04:28:38;3.90;1.00
14057;DHT22;7103;54.300;10.180;2024-03-06T04:31:05;3.90;1.00
14057;DHT22;7103;54.300;10.180;2024-03-06T04:33:32;4.00;1.00
14057;DHT22;7103;54.300;10.180;2024-03-06T04:36:01;3.90;1.00
14057;DHT22;7103;54.300;10.180;2024-03-06T04:38:29;3.90;1.00
14057;DHT22;7103;54.300;10.180;2024-03-06T04:40:56;3.80;1.00
14057;DHT22;7103;54.300;10.180;2024-03-06T04:43:23;3.90;1.00
14057;DHT22;7103;54.300;10.180;2024-03-06T04:45:50;4.00;1.00
14057;DHT22;7103;54.300;10.180;2024-03-06T04:48:17;4.10;1.00
14057;DHT22;7103;54.300;10.180;2024-03-06T04:50:44;4.10;1.00
14057;DHT22;7103;54.300;10.180;2024-03-06T04:53:11;4.30;1.00
14057;DHT22;7103;54.300;10.180;2024-03-06T04:55:38;4.20;1.00
14057;DHT22;7103;54.300;10.180;2024-03-06T04:58:06;4.10;1.00
14057;DHT22;7103;54.300;10.180;2024-03-06T05:00:33;4.00;1.00
14057;DHT22;7103;54.300;10.180;2024-03-06T05:03:00;4.00;1.00
14057;DHT22;7103;54.300;10.180;2024-03-06T05:05:44;4.10;1.00
14057;DHT22;7103;54.300;10.180;2024-03-06T05:08:28;4.20;1.00
14057;DHT22;7103;54.300;10.180;2024-03-06T05:11:14;4.00;1.00
14057;DHT22;7103;54.300;10.180;2024-03-06T05:13:59;4.00;1.00
14057;DHT22;7103;54.300;10.180;2024-03-06T05:16:44;4.00;1.00
14057;DHT22;7103;54.300;10.180;2024-03-06T05:19:28;4.00;1.00
14057;DHT22;7103;54.300;10.180;2024-03-06T05:22:16;4.00;1.00
14057;DHT22;7103;54.300;10.180;2024-03-06T05:25:01;4.00;1.00
14057;DHT22;7103;54.300;10.180;2024-03-06T05:27:45;3.90;1.00
14057;DHT22;7103;54.300;10.180;2024-03-06T05:30:32;4.00;1.00
14057;DHT22;7103;54.300;10.180;2024-03-06T05:33:17;4.00;1.00
14057;DHT22;7103;54.300;10.180;2024-03-06T05:36:01;4.10;1.00
14057;DHT22;7103;54.300;10.180;2024-03-06T05:38:45;4.00;1.00
14057;DHT22;7103;54.300;10.180;2024-03-06T05:41:30;4.00;1.00
14057;DHT22;7103;54.300;10.180;2024-03-06T05:44:14;4.00;1.00
14057;DHT22;7103;54.300;10.180;2024-03-06T05:46:59;4.10;1.00
14057;DHT22;7103;54.300;10.180;2024-03-06T05:49:44;4.10;1.00
14057;DHT22;7103;54.300;10.180;2024-03-06T05:52:29;4.00;1.00
14057;DHT22;7103;54.300;10.180;2024-03-06T05:55:14;4.00;1.00
14057;DHT22;7103;54.300;10.180;2024-03-06T05:57:58;4.20;1.00
14057;DHT22;7103;54.300;10.180;2024-03-06T06:00:36;4.30;1.00
14057;DHT22;7103;54.300;10.180;2024-03-06T06:03:03;4.10;1.00
14057;DHT22;7103;54.300;10.180;2024-03-06T06:05:31;4.00;1.00
14057;DHT22;7103;54.300;10.180;2024-03-06T06:07:58;4.00;1.00
14057;DHT22;7103;54.300;10.180;2024-03-06T06:10:25;3.90;1.00
14057;DHT22;7103;54.300;10.180;2024-03-06T06:12:51;4.00;1.00
14057;DHT22;7103;54.300;10.180;2024-03-06T06:15:19;3.90;1.00
14057;DHT22;7103;54.300;10.180;2024-03-06T06:17:47;3.90;1.00
14057;DHT22;7103;54.300;10.180;2024-03-06T06:20:14;4.10;1.00
14057;DHT22;7103;54.300;10.180;2024-03-06T06:22:43;4.00;1.00
14057;DHT22;7103;54.300;10.180;2024-03-06T06:25:11;4.00;1.00
14057;DHT22;7103;54.300;10.180;2024-03-06T06:27:38;4.00;1.00
14057;DHT22;7103;54.300;10.180;2024-03-06T06:30:06;4.00;1.00
14057;DHT22;7103;54.300;10.180;2024-03-06T06:32:38;4.00;1.00
14057;DHT22;7103;54.300;10.180;2024-03-06T06:35:07;4.00;1.00
14057;DHT22;7103;54.300;10.180;2024-03-06T06:37:36;4.10;1.00
14057;DHT22;7103;54.300;10.180;2024-03-06T06:40:03;4.10;1.00
14057;DHT22;7103;54.300;10.180;2024-03-06T06:42:34;4.10;1.00
14057;DHT22;7103;54.300;10.180;2024-03-06T06:45:02;4.20;1.00
14057;DHT22;7103;54.300;10.180;2024-03-06T06:47:29;4.10;1.00
14057;DHT22;7103;54.300;10.180;2024-03-06T06:49:56;4.10;1.00
14057;DHT22;7103;54.300;10.180;2024-03-06T06:52:23;4.20;1.00
14057;DHT22;7103;54.300;10.180;2024-03-06T06:54:50;4.20;1.00
14057;DHT22;7103;54.300;10.180;2024-03-06T06:57:18;4.10;1.00
14057;DHT22;7103;54.300;10.180;2024-03-06T06:59:45;4.10;1.00
14057;DHT22;7103;54.300;10.180;2024-03-06T07:02:12;4.20;1.00
14057;DHT22;7103;54.300;10.180;2024-03-06T07:04:39;4.20;1.00
14057;DHT22;7103;54.300;10.180;2024-03-06T07:07:06;4.20;1.00
14057;DHT22;7103;54.300;10.180;2024-03-06T07:09:33;4.20;1.00
14057;DHT22;7103;54.300;10.180;2024-03-06T07:12:00;4.20;1.00
14057;DHT22;7103;54.300;10.180;2024-03-06T07:14:30;4.20;1.00
14057;DHT22;7103;54.300;10.180;2024-03-06T07:17:28;4.20;1.00
14057;DHT22;7103;54.300;10.180;2024-03-06T07:19:55;4.30;1.00
14057;DHT22;7103;54.300;10.180;2024-03-06T07:22:22;4.20;1.00
14057;DHT22;7103;54.300;10.180;2024-03-06T07:24:49;4.20;1.00
14057;DHT22;7103;54.300;10.180;2024-03-06T07:27:16;4.20;1.00
14057;DHT22;7103;54.300;10.180;2024-03-06T07:29:45;4.20;1.00
14057;DHT22;7103;54.300;10.180;2024-03-06T07:32:12;4.20;1.00
14057;DHT22;7103;54.300;10.180;2024-03-06T07:34:39;4.30;1.00
14057;DHT22;7103;54.300;10.180;2024-03-06T07:37:06;4.30;1.00
14057;DHT22;7103;54.300;10.180;2024-03-06T07:39:33;4.40;1.00
14057;DHT22;7103;54.300;10.180;2024-03-06T07:42:01;4.40;1.00
14057;DHT22;7103;54.300;10.180;2024-03-06T07:44:29;4.60;1.00
14057;DHT22;7103;54.300;10.180;2024-03-06T07:46:56;4.50;1.00
14057;DHT22;7103;54.300;10.180;2024-03-06T07:49:23;4.40;1.00
14057;DHT22;7103;54.300;10.180;2024-03-06T07:51:50;4.40;1.00
14057;DHT22;7103;54.300;10.180;2024-03-06T07:54:17;4.40;1.00
14057;DHT22;7103;54.300;10.180;2024-03-06T07:56:44;4.50;1.00
14057;DHT22;7103;54.300;10.180;2024-03-06T07:59:11;4.60;1.00
14057;DHT22;7103;54.300;10.180;2024-03-06T08:01:39;4.60;1.00
14057;DHT22;7103;54.300;10.180;2024-03-06T08:04:07;4.60;1.00
14057;DHT22;7103;54.300;10.180;2024-03-06T08:06:34;4.70;1.00
14057;DHT22;7103;54.300;10.180;2024-03-06T08:09:05;4.70;1.00
14057;DHT22;7103;54.300;10.180;2024-03-06T08:11:32;4.80;1.00
14057;DHT22;7103;54.300;10.180;2024-03-06T08:14:00;4.90;1.00
14057;DHT22;7103;54.300;10.180;2024-03-06T08:16:29;4.90;1.00
14057;DHT22;7103;54.300;10.180;2024-03-06T08:19:06;4.90;1.00
14057;DHT22;7103;54.300;10.180;2024-03-06T08:21:33;5.00;1.00
14057;DHT22;7103;54.300;10.180;2024-03-06T08:24:00;5.00;1.00
14057;DHT22;7103;54.300;10.180;2024-03-06T08:26:27;5.10;1.00
14057;DHT22;7103;54.300;10.180;2024-03-06T08:28:54;5.00;1.00
14057;DHT22;7103;54.300;10.180;2024-03-06T08:31:21;5.20;1.00
14057;DHT22;7103;54.300;10.180;2024-03-06T08:33:52;5.20;1.00
14057;DHT22;7103;54.300;10.180;2024-03-06T08:36:19;5.10;1.00
14057;DHT22;7103;54.300;10.180;2024-03-06T08:38:48;5.10;1.00
14057;DHT22;7103;54.300;10.180;2024-03-06T08:41:15;5.10;1.00
14057;DHT22;7103;54.300;10.180;2024-03-06T08:43:42;5.30;1.00
14057;DHT22;7103;54.300;10.180;2024-03-06T08:46:09;5.50;1.00
14057;DHT22;7103;54.300;10.180;2024-03-06T08:48:36;5.40;1.00
14057;DHT22;7103;54.300;10.180;2024-03-06T08:51:03;5.40;1.00
14057;DHT22;7103;54.300;10.180;2024-03-06T08:53:32;5.30;1.00
14057;DHT22;7103;54.300;10.180;2024-03-06T08:55:58;5.20;1.00
14057;DHT22;7103;54.300;10.180;2024-03-06T08:58:26;5.20;1.00
14057;DHT22;7103;54.300;10.180;2024-03-06T09:00:53;5.30;1.00
14057;DHT22;7103;54.300;10.180;2024-03-06T09:03:20;5.20;1.00
14057;DHT22;7103;54.300;10.180;2024-03-06T09:05:47;5.20;1.00
14057;DHT22;7103;54.300;10.180;2024-03-06T09:08:14;5.30;1.00
14057;DHT22;7103;54.300;10.180;2024-03-06T09:10:41;5.20;1.00
14057;DHT22;7103;54.300;10.180;2024-03-06T09:13:08;5.30;1.00
14057;DHT22;7103;54.300;10.180;2024-03-06T09:15:34;5.30;1.00
14057;DHT22;7103;54.300;10.180;2024-03-06T09:18:02;5.30;99.90
14057;DHT22;7103;54.300;10.180;2024-03-06T09:20:30;5.30;99.90
14057;DHT22;7103;54.300;10.180;2024-03-06T09:22:58;5.30;99.90
14057;DHT22;7103;54.300;10.180;2024-03-06T09:25:26;5.30;99.90
14057;DHT22;7103;54.300;10.180;2024-03-06T09:27:56;5.40;99.90
14057;DHT22;7103;54.300;10.180;2024-03-06T09:30:23;5.30;99.90
14057;DHT22;7103;54.300;10.180;2024-03-06T09:32:50;5.30;99.90
14057;DHT22;7103;54.300;10.180;2024-03-06T09:35:18;5.40;99.90
14057;DHT22;7103;54.300;10.180;2024-03-06T09:37:45;5.40;99.90
14057;DHT22;7103;54.300;10.180;2024-03-06T09:40:20;5.40;99.90
14057;DHT22;7103;54.300;10.180;2024-03-06T09:42:52;5.50;99.90
14057;DHT22;7103;54.300;10.180;2024-03-06T09:45:19;5.50;99.90
14057;DHT22;7103;54.300;10.180;2024-03-06T09:47:47;5.30;99.90
14057;DHT22;7103;54.300;10.180;2024-03-06T09:50:16;5.20;99.90
14057;DHT22;7103;54.300;10.180;2024-03-06T09:52:51;5.30;99.90
14057;DHT22;7103;54.300;10.180;2024-03-06T09:55:20;5.40;99.90
14057;DHT22;7103;54.300;10.180;2024-03-06T09:57:47;5.50;99.90
14057;DHT22;7103;54.300;10.180;2024-03-06T10:00:15;5.50;99.90
14057;DHT22;7103;54.300;10.180;2024-03-06T10:02:57;5.40;99.90
14057;DHT22;7103;54.300;10.180;2024-03-06T10:05:24;5.50;99.90
14057;DHT22;7103;54.300;10.180;2024-03-06T10:07:52;5.50;99.90
14057;DHT22;7103;54.300;10.180;2024-03-06T10:10:22;5.50;99.90
14057;DHT22;7103;54.300;10.180;2024-03-06T10:12:50;5.50;99.90
14057;DHT22;7103;54.300;10.180;2024-03-06T10:15:17;5.60;99.90
14057;DHT22;7103;54.300;10.180;2024-03-06T10:17:44;5.50;99.90
14057;DHT22;7103;54.300;10.180;2024-03-06T10:20:23;5.50;78.80
14057;DHT22;7103;54.300;10.180;2024-03-06T10:22:52;5.50;75.50
14057;DHT22;7103;54.300;10.180;2024-03-06T10:25:25;5.60;75.30
14057;DHT22;7103;54.300;10.180;2024-03-06T10:30:40;5.60;60.60
14057;DHT22;7103;54.300;10.180;2024-03-06T10:33:10;5.60;47.80
14057;DHT22;7103;54.300;10.180;2024-03-06T10:35:40;5.50;31.30
14057;DHT22;7103;54.300;10.180;2024-03-06T10:38:08;5.70;19.10
14057;DHT22;7103;54.300;10.180;2024-03-06T10:40:42;5.40;1.20
14057;DHT22;7103;54.300;10.180;2024-03-06T10:43:10;5.50;1.00
14057;DHT22;7103;54.300;10.180;2024-03-06T10:45:47;5.50;1.00
14057;DHT22;7103;54.300;10.180;2024-03-06T10:48:16;5.40;1.00
14057;DHT22;7103;54.300;10.180;2024-03-06T10:50:44;5.40;1.00
14057;DHT22;7103;54.300;10.180;2024-03-06T10:53:14;5.40;1.00
14057;DHT22;7103;54.300;10.180;2024-03-06T10:55:49;5.50;1.00
14057;DHT22;7103;54.300;10.180;2024-03-06T10:58:16;5.60;1.00
14057;DHT22;7103;54.300;10.180;2024-03-06T11:00:46;5.50;1.00
14057;DHT22;7103;54.300;10.180;2024-03-06T11:03:14;5.60;1.00
14057;DHT22;7103;54.300;10.180;2024-03-06T11:05:43;5.60;1.00
14057;DHT22;7103;54.300;10.180;2024-03-06T11:08:13;5.60;1.00
14057;DHT22;7103;54.300;10.180;2024-03-06T11:10:41;5.70;1.00
14057;DHT22;7103;54.300;10.180;2024-03-06T11:13:30;5.60;1.00
14057;DHT22;7103;54.300;10.180;2024-03-06T11:16:01;5.70;1.00
14057;DHT22;7103;54.300;10.180;2024-03-06T11:23:32;5.70;1.00
14057;DHT22;7103;54.300;10.180;2024-03-06T11:26:01;5.80;1.00
14057;DHT22;7103;54.300;10.180;2024-03-06T11:28:37;5.80;1.00
14057;DHT22;7103;54.300;10.180;2024-03-06T11:31:09;5.80;1.00
14057;DHT22;7103;54.300;10.180;2024-03-06T11:33:44;5.80;1.00
14057;DHT22;7103;54.300;10.180;2024-03-06T11:36:19;5.90;1.00
14057;DHT22;7103;54.300;10.180;2024-03-06T11:38:50;5.90;1.00
14057;DHT22;7103;54.300;10.180;2024-03-06T11:41:21;5.90;1.00
14057;DHT22;7103;54.300;10.180;2024-03-06T11:43:52;6.00;1.00
14057;DHT22;7103;54.300;10.180;2024-03-06T11:46:40;5.90;1.00
14057;DHT22;7103;54.300;10.180;2024-03-06T11:49:27;5.90;1.00
14057;DHT22;7103;54.300;10.180;2024-03-06T11:52:05;5.90;1.00
14057;DHT22;7103;54.300;10.180;2024-03-06T11:54:37;6.00;1.00
14057;DHT22;7103;54.300;10.180;2024-03-06T11:57:05;5.90;1.00
14057;DHT22;7103;54.300;10.180;2024-03-06T11:59:34;5.90;1.00
14057;DHT22;7103;54.300;10.180;2024-03-06T12:02:04;5.90;1.00
14057;DHT22;7103;54.300;10.180;2024-03-06T12:04:32;6.00;1.00
14057;DHT22;7103;54.300;10.180;2024-03-06T12:07:07;5.90;1.00
14057;DHT22;7103;54.300;10.180;2024-03-06T12:09:37;5.90;1.00
14057;DHT22;7103;54.300;10.180;2024-03-06T12:12:09;5.90;1.00
14057;DHT22;7103;54.300;10.180;2024-03-06T12:14:37;6.10;1.00
14057;DHT22;7103;54.300;10.180;2024-03-06T12:17:12;6.10;1.00
14057;DHT22;7103;54.300;10.180;2024-03-06T12:19:43;6.10;1.00
14057;DHT22;7103;54.300;10.180;2024-03-06T12:22:13;6.10;1.00
14057;DHT22;7103;54.300;10.180;2024-03-06T12:24:42;6.30;1.00
14057;DHT22;7103;54.300;10.180;2024-03-06T12:27:09;6.20;1.00
14057;DHT22;7103;54.300;10.180;2024-03-06T12:29:36;6.20;1.00
14057;DHT22;7103;54.300;10.180;2024-03-06T12:32:15;6.20;1.00
14057;DHT22;7103;54.300;10.180;2024-03-06T12:34:42;6.30;1.00
14057;DHT22;7103;54.300;10.180;2024-03-06T12:37:10;6.40;1.00
14057;DHT22;7103;54.300;10.180;2024-03-06T12:39:40;6.30;1.00
14057;DHT22;7103;54.300;10.180;2024-03-06T12:42:09;6.20;1.00
14057;DHT22;7103;54.300;10.180;2024-03-06T12:44:37;6.30;1.00
14057;DHT22;7103;54.300;10.180;2024-03-06T12:47:06;6.10;1.00
14057;DHT22;7103;54.300;10.180;2024-03-06T12:49:33;6.00;1.00
14057;DHT22;7103;54.300;10.180;2024-03-06T12:52:00;6.00;1.00
14057;DHT22;7103;54.300;10.180;2024-03-06T12:54:31;5.90;1.00
14057;DHT22;7103;54.300;10.180;2024-03-06T12:57:01;6.00;1.00
14057;DHT22;7103;54.300;10.180;2024-03-06T12:59:29;6.00;1.00
14057;DHT22;7103;54.300;10.180;2024-03-06T13:01:56;6.10;1.00
14057;DHT22;7103;54.300;10.180;2024-03-06T13:04:24;5.90;1.00
14057;DHT22;7103;54.300;10.180;2024-03-06T13:06:50;5.80;1.00
14057;DHT22;7103;54.300;10.180;2024-03-06T13:09:17;5.90;1.00
14057;DHT22;7103;54.300;10.180;2024-03-06T13:11:44;6.00;1.00
14057;DHT22;7103;54.300;10.180;2024-03-06T13:14:11;6.00;1.00
14057;DHT22;7103;54.300;10.180;2024-03-06T13:16:39;5.70;1.00
14057;DHT22;7103;54.300;10.180;2024-03-06T13:19:07;5.70;1.00
14057;DHT22;7103;54.300;10.180;2024-03-06T13:21:35;5.70;1.00
14057;DHT22;7103;54.300;10.180;2024-03-06T13:24:02;5.80;1.00
14057;DHT22;7103;54.300;10.180;2024-03-06T13:26:29;5.90;1.00
14057;DHT22;7103;54.300;10.180;2024-03-06T13:28:56;6.00;1.00
14057;DHT22;7103;54.300;10.180;2024-03-06T13:31:23;6.10;1.00
14057;DHT22;7103;54.300;10.180;2024-03-06T13:33:50;5.90;1.00
14057;DHT22;7103;54.300;10.180;2024-03-06T13:36:17;6.10;1.00
14057;DHT22;7103;54.300;10.180;2024-03-06T13:38:44;6.20;1.00
14057;DHT22;7103;54.300;10.180;2024-03-06T13:41:11;6.00;1.00
14057;DHT22;7103;54.300;10.180;2024-03-06T13:43:38;5.90;1.00
14057;DHT22;7103;54.300;10.180;2024-03-06T13:46:05;5.90;1.00
14057;DHT22;7103;54.300;10.180;2024-03-06T13:48:32;5.80;1.00
14057;DHT22;7103;54.300;10.180;2024-03-06T13:50:59;5.80;1.00
14057;DHT22;7103;54.300;10.180;2024-03-06T13:53:26;5.80;1.00
14057;DHT22;7103;54.300;10.180;2024-03-06T13:55:53;5.90;1.00
14057;DHT22;7103;54.300;10.180;2024-03-06T13:58:20;5.80;1.00
14057;DHT22;7103;54.300;10.180;2024-03-06T14:00:47;5.90;1.00
14057;DHT22;7103;54.300;10.180;2024-03-06T14:03:14;6.00;1.00
14057;DHT22;7103;54.300;10.180;2024-03-06T14:05:41;5.90;1.00
14057;DHT22;7103;54.300;10.180;2024-03-06T14:08:08;5.80;1.00
14057;DHT22;7103;54.300;10.180;2024-03-06T14:10:41;5.90;1.00
14057;DHT22;7103;54.300;10.180;2024-03-06T14:13:08;5.90;1.00
14057;DHT22;7103;54.300;10.180;2024-03-06T14:15:35;6.00;1.00
14057;DHT22;7103;54.300;10.180;2024-03-06T14:18:05;6.00;1.00
14057;DHT22;7103;54.300;10.180;2024-03-06T14:20:33;5.70;1.00
14057;DHT22;7103;54.300;10.180;2024-03-06T14:23:00;5.80;1.00
14057;DHT22;7103;54.300;10.180;2024-03-06T14:25:27;5.80;1.00
14057;DHT22;7103;54.300;10.180;2024-03-06T14:27:54;5.70;1.00
14057;DHT22;7103;54.300;10.180;2024-03-06T14:30:21;5.80;1.00
14057;DHT22;7103;54.300;10.180;2024-03-06T14:32:48;5.80;1.00
14057;DHT22;7103;54.300;10.180;2024-03-06T14:35:16;5.80;1.00
14057;DHT22;7103;54.300;10.180;2024-03-06T14:37:43;5.80;1.00
14057;DHT22;7103;54.300;10.180;2024-03-06T14:40:10;5.70;1.00
14057;DHT22;7103;54.300;10.180;2024-03-06T14:42:37;5.70;1.00
14057;DHT22;7103;54.300;10.180;2024-03-06T14:45:04;5.80;1.00
14057;DHT22;7103;54.300;10.180;2024-03-06T14:47:34;5.70;1.00
14057;DHT22;7103;54.300;10.180;2024-03-06T14:50:03;5.70;1.00
14057;DHT22;7103;54.300;10.180;2024-03-06T14:52:30;5.70;1.00
14057;DHT22;7103;54.300;10.180;2024-03-06T14:54:57;5.70;1.00
14057;DHT22;7103;54.300;10.180;2024-03-06T14:57:24;5.60;1.00
14057;DHT22;7103;54.300;10.180;2024-03-06T14:59:51;5.60;1.00
14057;DHT22;7103;54.300;10.180;2024-03-06T15:02:20;5.60;1.00
14057;DHT22;7103;54.300;10.180;2024-03-06T15:04:47;5.60;1.00
14057;DHT22;7103;54.300;10.180;2024-03-06T15:07:14;5.70;1.00
14057;DHT22;7103;54.300;10.180;2024-03-06T15:09:41;5.70;1.00
14057;DHT22;7103;54.300;10.180;2024-03-06T15:12:08;5.70;1.00
14057;DHT22;7103;54.300;10.180;2024-03-06T15:14:35;5.70;1.00
14057;DHT22;7103;54.300;10.180;2024-03-06T15:17:12;5.70;1.00
14057;DHT22;7103;54.300;10.180;2024-03-06T15:19:39;5.60;1.00
14057;DHT22;7103;54.300;10.180;2024-03-06T15:22:07;5.60;1.00
14057;DHT22;7103;54.300;10.180;2024-03-06T15:24:34;5.60;1.00
14057;DHT22;7103;54.300;10.180;2024-03-06T15:27:01;5.50;1.00
14057;DHT22;7103;54.300;10.180;2024-03-06T15:29:28;5.70;1.00
14057;DHT22;7103;54.300;10.180;2024-03-06T15:31:55;5.60;1.00
14057;DHT22;7103;54.300;10.180;2024-03-06T15:34:22;5.50;1.00
14057;DHT22;7103;54.300;10.180;2024-03-06T15:36:49;5.40;1.00
14057;DHT22;7103;54.300;10.180;2024-03-06T15:39:19;5.40;1.00
14057;DHT22;7103;54.300;10.180;2024-03-06T15:41:47;5.30;1.00
14057;DHT22;7103;54.300;10.180;2024-03-06T15:44:14;5.40;1.00
14057;DHT22;7103;54.300;10.180;2024-03-06T15:46:41;5.50;1.00
14057;DHT22;7103;54.300;10.180;2024-03-06T15:49:22;5.50;1.00
14057;DHT22;7103;54.300;10.180;2024-03-06T15:51:53;5.40;1.00
14057;DHT22;7103;54.300;10.180;2024-03-06T15:54:21;5.40;1.00
14057;DHT22;7103;54.300;10.180;2024-03-06T15:56:48;5.40;1.00
14057;DHT22;7103;54.300;10.180;2024-03-06T15:59:15;5.50;1.00
14057;DHT22;7103;54.300;10.180;2024-03-06T16:01:42;5.70;1.00
14057;DHT22;7103;54.300;10.180;2024-03-06T16:04:09;5.80;1.00
14057;DHT22;7103;54.300;10.180;2024-03-06T16:06:36;5.70;1.00
14057;DHT22;7103;54.300;10.180;2024-03-06T16:09:07;5.50;1.00
14057;DHT22;7103;54.300;10.180;2024-03-06T16:11:40;5.50;1.00
14057;DHT22;7103;54.300;10.180;2024-03-06T16:14:07;5.50;1.00
14057;DHT22;7103;54.300;10.180;2024-03-06T16:16:34;5.40;1.00